sensor_id;sensor_type;location;lat;lon;timestamp;temperature;humidity
3866;DHT22;1948;53.250;10.412;2023-02-19T00:01:46;7.10;99.90
3866;DHT22;1948;53.250;10.412;2023-02-19T00:04:16;7.10;99.90
3866;DHT22;1948;53.250;10.412;2023-02-19T00:06:45;7.10;99.90
3866;DHT22;1948;53.250;10.412;2023-02-19T00:09:17;7.00;99.90
3866;DHT22;1948;53.250;10.412;2023-02-19T00:11:45;7.10;99.90
3866;DHT22;1948;53.250;10.412;2023-02-19T00:14:15;7.10;99.90
3866;DHT22;1948;53.250;10.412;2023-02-19T00:16:49;7.10;99.90
3866;DHT22;1948;53.250;10.412;2023-02-19T00:19:18;7.10;99.90
3866;DHT22;1948;53.250;10.412;2023-02-19T00:21:50;6.90;99.90
3866;DHT22;1948;53.250;10.412;2023-02-19T00:24:21;6.90;99.90
3866;DHT22;1948;53.250;10.412;2023-02-19T00:26:48;6.90;99.90
3866;DHT22;1948;53.250;10.412;2023-02-19T00:29:18;7.00;99.90
3866;DHT22;1948;53.250;10.412;2023-02-19T00:31:46;7.00;99.90
3866;DHT22;1948;53.250;10.412;2023-02-19T00:34:13;7.00;99.90
3866;DHT22;1948;53.250;10.412;2023-02-19T00:36:43;7.00;99.90
3866;DHT22;1948;53.250;10.412;2023-02-19T00:39:15;7.00;99.90
3866;DHT22;1948;53.250;10.412;2023-02-19T00:41:50;6.90;99.90
3866;DHT22;1948;53.250;10.412;2023-02-19T00:44:21;6.90;99.90
3866;DHT22;1948;53.250;10.412;2023-02-19T00:46:48;6.90;99.90
3866;DHT22;1948;53.250;10.412;2023-02-19T00:49:18;6.90;99.90
3866;DHT22;1948;53.250;10.412;2023-02-19T00:51:48;6.90;99.90
3866;DHT22;1948;53.250;10.412;2023-02-19T00:54:17;6.90;99.90
3866;DHT22;1948;53.250;10.412;2023-02-19T00:56:48;6.90;99.90
3866;DHT22;1948;53.250;10.412;2023-02-19T00:59:15;6.90;99.90
3866;DHT22;1948;53.250;10.412;2023-02-19T01:01:45;6.80;99.90
3866;DHT22;1948;53.250;10.412;2023-02-19T01:04:12;6.80;99.90
3866;DHT22;1948;53.250;10.412;2023-02-19T01:06:39;6.90;99.90
3866;DHT22;1948;53.250;10.412;2023-02-19T01:09:07;6.90;99.90
3866;DHT22;1948;53.250;10.412;2023-02-19T01:11:34;6.80;99.90
3866;DHT22;1948;53.250;10.412;2023-02-19T01:14:03;6.80;99.90
3866;DHT22;1948;53.250;10.412;2023-02-19T01:16:31;6.80;99.90
3866;DHT22;1948;53.250;10.412;2023-02-19T01:18:58;6.80;99.90
3866;DHT22;1948;53.250;10.412;2023-02-19T01:21:27;6.70;99.90
3866;DHT22;1948;53.250;10.412;2023-02-19T01:23:55;6.70;99.90
3866;DHT22;1948;53.250;10.412;2023-02-19T01:26:24;6.70;99.90
3866;DHT22;1948;53.250;10.412;2023-02-19T01:29:05;6.60;99.90
3866;DHT22;1948;53.250;10.412;2023-02-19T01:31:32;6.60;99.90
3866;DHT22;1948;53.250;10.412;2023-02-19T01:34:04;6.60;99.90
3866;DHT22;1948;53.250;10.412;2023-02-19T01:36:34;6.50;99.90
3866;DHT22;1948;53.250;10.412;2023-02-19T01:39:04;6.50;99.90
3866;DHT22;1948;53.250;10.412;2023-02-19T01:41:36;6.50;99.90
3866;DHT22;1948;53.250;10.412;2023-02-19T01:46:39;6.50;99.90
3866;DHT22;1948;53.250;10.412;2023-02-19T01:49:20;6.50;99.90
3866;DHT22;1948;53.250;10.412;2023-02-19T01:51:58;6.50;99.90
3866;DHT22;1948;53.250;10.412;2023-02-19T01:54:47;6.50;99.90
3866;DHT22;1948;53.250;10.412;2023-02-19T01:57:21;6.50;99.90
3866;DHT22;1948;53.250;10.412;2023-02-19T01:59:57;6.50;99.90
3866;DHT22;1948;53.250;10.412;2023-02-19T02:02:31;6.50;99.90
3866;DHT22;1948;53.250;10.412;2023-02-19T02:04:59;6.50;99.90
3866;DHT22;1948;53.250;10.412;2023-02-19T02:07:27;6.50;99.90
3866;DHT22;1948;53.250;10.412;2023-02-19T02:10:13;6.50;99.90
3866;DHT22;1948;53.250;10.412;2023-02-19T02:12:47;6.50;99.90
3866;DHT22;1948;53.250;10.412;2023-02-19T02:15:16;6.50;99.90
3866;DHT22;1948;53.250;10.412;2023-02-19T02:20:45;6.50;99.90
3866;DHT22;1948;53.250;10.412;2023-02-19T02:24:00;6.60;99.90
3866;DHT22;1948;53.250;10.412;2023-02-19T02:32:39;6.60;99.90
3866;DHT22;1948;53.250;10.412;2023-02-19T02:35:25;6.60;99.90
3866;DHT22;1948;53.250;10.412;2023-02-19T02:38:05;6.60;99.90
3866;DHT22;1948;53.250;10.412;2023-02-19T02:40:34;6.60;99.90
3866;DHT22;1948;53.250;10.412;2023-02-19T02:43:03;6.60;99.90
3866;DHT22;1948;53.250;10.412;2023-02-19T02:45:31;6.60;99.90
3866;DHT22;1948;53.250;10.412;2023-02-19T02:51:15;6.50;99.90
3866;DHT22;1948;53.250;10.412;2023-02-19T02:54:03;6.40;99.90
3866;DHT22;1948;53.250;10.412;2023-02-19T02:57:02;6.50;99.90
3866;DHT22;1948;53.250;10.412;2023-02-19T02:59:35;6.50;99.90
3866;DHT22;1948;53.250;10.412;2023-02-19T03:02:18;6.40;99.90
3866;DHT22;1948;53.250;10.412;2023-02-19T03:10:44;6.40;99.90
3866;DHT22;1948;53.250;10.412;2023-02-19T03:13:40;6.40;99.90
3866;DHT22;1948;53.250;10.412;2023-02-19T03:16:30;6.30;99.90
3866;DHT22;1948;53.250;10.412;2023-02-19T03:19:19;6.20;99.90
3866;DHT22;1948;53.250;10.412;2023-02-19T03:21:54;6.20;99.90
3866;DHT22;1948;53.250;10.412;2023-02-19T03:24:33;6.20;99.90
3866;DHT22;1948;53.250;10.412;2023-02-19T03:27:21;6.10;99.90
3866;DHT22;1948;53.250;10.412;2023-02-19T03:29:53;6.00;99.90
3866;DHT22;1948;53.250;10.412;2023-02-19T03:32:27;6.00;99.90
3866;DHT22;1948;53.250;10.412;2023-02-19T03:35:10;6.00;99.90
3866;DHT22;1948;53.250;10.412;2023-02-19T03:37:56;6.00;99.90
3866;DHT22;1948;53.250;10.412;2023-02-19T03:40:28;6.00;99.90
3866;DHT22;1948;53.250;10.412;2023-02-19T03:43:06;6.00;99.90
3866;DHT22;1948;53.250;10.412;2023-02-19T03:46:09;5.90;99.90
3866;DHT22;1948;53.250;10.412;2023-02-19T03:51:45;5.80;99.90
3866;DHT22;1948;53.250;10.412;2023-02-19T04:00:26;5.90;99.90
3866;DHT22;1948;53.250;10.412;2023-02-19T04:06:27;6.00;99.90
3866;DHT22;1948;53.250;10.412;2023-02-19T04:08:58;5.90;99.90
3866;DHT22;1948;53.250;10.412;2023-02-19T04:11:28;5.90;99.90
3866;DHT22;1948;53.250;10.412;2023-02-19T04:14:24;5.90;99.90
3866;DHT22;1948;53.250;10.412;2023-02-19T04:17:00;5.90;99.90
3866;DHT22;1948;53.250;10.412;2023-02-19T04:19:32;6.00;99.90
3866;DHT22;1948;53.250;10.412;2023-02-19T04:22:04;5.80;99.90
3866;DHT22;1948;53.250;10.412;2023-02-19T04:24:45;5.80;99.90
3866;DHT22;1948;53.250;10.412;2023-02-19T04:27:14;5.80;99.90
3866;DHT22;1948;53.250;10.412;2023-02-19T04:29:42;5.80;99.90
3866;DHT22;1948;53.250;10.412;2023-02-19T04:32:11;5.80;99.90
3866;DHT22;1948;53.250;10.412;2023-02-19T04:34:38;5.80;99.90
3866;DHT22;1948;53.250;10.412;2023-02-19T04:37:06;5.80;99.90
3866;DHT22;1948;53.250;10.412;2023-02-19T04:39:33;5.80;99.90
3866;DHT22;1948;53.250;10.412;2023-02-19T04:42:03;5.80;99.90
3866;DHT22;1948;53.250;10.412;2023-02-19T04:44:32;5.90;99.90
3866;DHT22;1948;53.250;10.412;2023-02-19T04:47:00;5.90;99.90
3866;DHT22;1948;53.250;10.412;2023-02-19T04:49:27;5.90;99.90
3866;DHT22;1948;53.250;10.412;2023-02-19T04:51:59;6.00;99.90
3866;DHT22;1948;53.250;10.412;2023-02-19T04:54:26;6.00;99.90
3866;DHT22;1948;53.250;10.412;2023-02-19T04:56:55;5.90;99.90
3866;DHT22;1948;53.250;10.412;2023-02-19T04:59:23;5.90;99.90
3866;DHT22;1948;53.250;10.412;2023-02-19T05:01:53;5.90;99.90
3866;DHT22;1948;53.250;10.412;2023-02-19T05:04:24;5.90;99.90
3866;DHT22;1948;53.250;10.412;2023-02-19T05:06:54;5.90;99.90
3866;DHT22;1948;53.250;10.412;2023-02-19T05:09:21;5.90;99.90
3866;DHT22;1948;53.250;10.412;2023-02-19T05:11:48;5.90;99.90
3866;DHT22;1948;53.250;10.412;2023-02-19T05:14:15;5.90;99.90
3866;DHT22;1948;53.250;10.412;2023-02-19T05:16:42;5.90;99.90
3866;DHT22;1948;53.250;10.412;2023-02-19T05:19:13;5.90;99.90
3866;DHT22;1948;53.250;10.412;2023-02-19T05:21:40;5.90;99.90
3866;DHT22;1948;53.250;10.412;2023-02-19T05:24:07;5.80;99.90
3866;DHT22;1948;53.250;10.412;2023-02-19T05:26:37;5.80;99.90
3866;DHT22;1948;53.250;10.412;2023-02-19T05:29:04;5.80;99.90
3866;DHT22;1948;53.250;10.412;2023-02-19T05:31:31;5.70;99.90
3866;DHT22;1948;53.250;10.412;2023-02-19T05:34:01;5.70;99.90
3866;DHT22;1948;53.250;10.412;2023-02-19T05:36:29;5.60;99.90
3866;DHT22;1948;53.250;10.412;2023-02-19T05:39:00;5.60;99.90
3866;DHT22;1948;53.250;10.412;2023-02-19T05:41:29;5.50;99.90
3866;DHT22;1948;53.250;10.412;2023-02-19T05:43:57;5.50;99.90
3866;DHT22;1948;53.250;10.412;2023-02-19T05:46:26;5.60;99.90
3866;DHT22;1948;53.250;10.412;2023-02-19T05:48:55;5.50;99.90
3866;DHT22;1948;53.250;10.412;2023-02-19T05:51:25;5.40;99.90
3866;DHT22;1948;53.250;10.412;2023-02-19T05:53:53;5.40;99.90
3866;DHT22;1948;53.250;10.412;2023-02-19T05:56:31;5.30;99.90
3866;DHT22;1948;53.250;10.412;2023-02-19T05:58:59;5.20;99.90
3866;DHT22;1948;53.250;10.412;2023-02-19T06:01:32;5.20;99.90
3866;DHT22;1948;53.250;10.412;2023-02-19T06:04:02;5.10;99.90
3866;DHT22;1948;53.250;10.412;2023-02-19T06:06:29;5.10;99.90
3866;DHT22;1948;53.250;10.412;2023-02-19T06:08:56;5.00;99.90
3866;DHT22;1948;53.250;10.412;2023-02-19T06:11:24;5.00;99.90
3866;DHT22;1948;53.250;10.412;2023-02-19T06:13:51;5.00;99.90
3866;DHT22;1948;53.250;10.412;2023-02-19T06:16:20;4.90;99.90
3866;DHT22;1948;53.250;10.412;2023-02-19T06:18:48;4.90;99.90
3866;DHT22;1948;53.250;10.412;2023-02-19T06:21:32;4.80;99.90
3866;DHT22;1948;53.250;10.412;2023-02-19T06:24:07;4.80;99.90
3866;DHT22;1948;53.250;10.412;2023-02-19T06:26:37;4.70;99.90
3866;DHT22;1948;53.250;10.412;2023-02-19T06:29:04;4.70;99.90
3866;DHT22;1948;53.250;10.412;2023-02-19T06:31:31;4.60;99.90
3866;DHT22;1948;53.250;10.412;2023-02-19T06:34:01;4.60;99.90
3866;DHT22;1948;53.250;10.412;2023-02-19T06:36:29;4.60;99.90
3866;DHT22;1948;53.250;10.412;2023-02-19T06:39:00;4.60;99.90
3866;DHT22;1948;53.250;10.412;2023-02-19T06:41:27;4.50;99.90
3866;DHT22;1948;53.250;10.412;2023-02-19T06:43:57;4.50;99.90
3866;DHT22;1948;53.250;10.412;2023-02-19T06:46:24;4.50;99.90
3866;DHT22;1948;53.250;10.412;2023-02-19T06:48:52;4.50;99.90
3866;DHT22;1948;53.250;10.412;2023-02-19T06:51:19;4.50;99.90
3866;DHT22;1948;53.250;10.412;2023-02-19T06:53:52;4.50;99.90
3866;DHT22;1948;53.250;10.412;2023-02-19T06:56:26;4.50;99.90
3866;DHT22;1948;53.250;10.412;2023-02-19T06:58:56;4.60;99.90
3866;DHT22;1948;53.250;10.412;2023-02-19T07:01:32;4.60;99.90
3866;DHT22;1948;53.250;10.412;2023-02-19T07:04:00;4.70;99.90
3866;DHT22;1948;53.250;10.412;2023-02-19T07:06:33;4.80;99.90
3866;DHT22;1948;53.250;10.412;2023-02-19T07:09:04;4.90;99.90
3866;DHT22;1948;53.250;10.412;2023-02-19T07:11:34;5.00;99.90
3866;DHT22;1948;53.250;10.412;2023-02-19T07:14:03;5.40;99.90
3866;DHT22;1948;53.250;10.412;2023-02-19T07:16:36;5.70;99.90
3866;DHT22;1948;53.250;10.412;2023-02-19T07:19:06;6.20;99.90
3866;DHT22;1948;53.250;10.412;2023-02-19T07:21:33;6.50;99.90
3866;DHT22;1948;53.250;10.412;2023-02-19T07:24:04;6.80;99.90
3866;DHT22;1948;53.250;10.412;2023-02-19T07:26:31;7.20;99.90
3866;DHT22;1948;53.250;10.412;2023-02-19T07:28:58;7.50;99.90
3866;DHT22;1948;53.250;10.412;2023-02-19T07:31:27;7.70;99.90
3866;DHT22;1948;53.250;10.412;2023-02-19T07:33:54;7.90;99.90
3866;DHT22;1948;53.250;10.412;2023-02-19T07:36:23;8.00;99.90
3866;DHT22;1948;53.250;10.412;2023-02-19T07:38:57;7.80;99.90
3866;DHT22;1948;53.250;10.412;2023-02-19T07:41:27;7.70;99.90
3866;DHT22;1948;53.250;10.412;2023-02-19T07:43:54;7.70;99.90
3866;DHT22;1948;53.250;10.412;2023-02-19T07:46:21;8.20;99.90
3866;DHT22;1948;53.250;10.412;2023-02-19T07:48:52;8.60;99.90
3866;DHT22;1948;53.250;10.412;2023-02-19T07:51:21;8.80;99.90
3866;DHT22;1948;53.250;10.412;2023-02-19T07:53:50;9.00;99.90
3866;DHT22;1948;53.250;10.412;2023-02-19T07:56:18;9.50;99.90
3866;DHT22;1948;53.250;10.412;2023-02-19T07:58:45;10.00;99.90
3866;DHT22;1948;53.250;10.412;2023-02-19T08:01:22;10.40;99.90
3866;DHT22;1948;53.250;10.412;2023-02-19T08:04:12;10.20;99.90
3866;DHT22;1948;53.250;10.412;2023-02-19T08:06:41;10.30;99.90
3866;DHT22;1948;53.250;10.412;2023-02-19T08:09:09;10.50;99.90
3866;DHT22;1948;53.250;10.412;2023-02-19T08:11:36;10.70;99.90
3866;DHT22;1948;53.250;10.412;2023-02-19T08:14:25;11.20;99.90
3866;DHT22;1948;53.250;10.412;2023-02-19T08:16:55;11.90;99.90
3866;DHT22;1948;53.250;10.412;2023-02-19T08:19:25;12.40;99.90
3866;DHT22;1948;53.250;10.412;2023-02-19T08:21:52;13.10;99.90
3866;DHT22;1948;53.250;10.412;2023-02-19T08:24:19;13.90;99.90
3866;DHT22;1948;53.250;10.412;2023-02-19T08:26:48;14.80;99.90
3866;DHT22;1948;53.250;10.412;2023-02-19T08:29:15;15.10;99.90
3866;DHT22;1948;53.250;10.412;2023-02-19T08:31:42;15.30;99.90
3866;DHT22;1948;53.250;10.412;2023-02-19T08:34:12;15.50;99.90
3866;DHT22;1948;53.250;10.412;2023-02-19T08:36:39;15.50;99.90
3866;DHT22;1948;53.250;10.412;2023-02-19T08:39:05;15.60;99.90
3866;DHT22;1948;53.250;10.412;2023-02-19T08:41:32;15.70;99.90
3866;DHT22;1948;53.250;10.412;2023-02-19T08:44:04;15.80;99.90
3866;DHT22;1948;53.250;10.412;2023-02-19T08:46:31;16.60;99.90
3866;DHT22;1948;53.250;10.412;2023-02-19T08:49:00;17.80;99.90
3866;DHT22;1948;53.250;10.412;2023-02-19T08:51:27;18.80;99.90
3866;DHT22;1948;53.250;10.412;2023-02-19T08:53:56;19.40;99.90
3866;DHT22;1948;53.250;10.412;2023-02-19T08:56:23;20.20;99.90
3866;DHT22;1948;53.250;10.412;2023-02-19T08:58:53;20.60;99.90
3866;DHT22;1948;53.250;10.412;2023-02-19T09:01:22;21.20;99.90
3866;DHT22;1948;53.250;10.412;2023-02-19T09:03:49;21.60;99.90
3866;DHT22;1948;53.250;10.412;2023-02-19T09:06:19;21.90;99.90
3866;DHT22;1948;53.250;10.412;2023-02-19T09:08:46;21.90;99.20
3866;DHT22;1948;53.250;10.412;2023-02-19T09:11:16;22.20;98.60
3866;DHT22;1948;53.250;10.412;2023-02-19T09:13:43;22.50;97.70
3866;DHT22;1948;53.250;10.412;2023-02-19T09:16:10;22.40;97.10
3866;DHT22;1948;53.250;10.412;2023-02-19T09:18:37;22.80;96.60
3866;DHT22;1948;53.250;10.412;2023-02-19T09:21:08;23.30;95.70
3866;DHT22;1948;53.250;10.412;2023-02-19T09:23:38;23.10;95.40
3866;DHT22;1948;53.250;10.412;2023-02-19T09:26:06;23.60;95.10
3866;DHT22;1948;53.250;10.412;2023-02-19T09:28:35;23.40;94.00
3866;DHT22;1948;53.250;10.412;2023-02-19T09:31:12;23.70;93.10
3866;DHT22;1948;53.250;10.412;2023-02-19T09:33:47;24.00;92.80
3866;DHT22;1948;53.250;10.412;2023-02-19T09:36:15;24.40;93.00
3866;DHT22;1948;53.250;10.412;2023-02-19T09:38:47;24.60;92.10
3866;DHT22;1948;53.250;10.412;2023-02-19T09:41:29;24.90;90.80
3866;DHT22;1948;53.250;10.412;2023-02-19T09:44:03;25.10;90.50
3866;DHT22;1948;53.250;10.412;2023-02-19T09:46:42;25.70;89.10
3866;DHT22;1948;53.250;10.412;2023-02-19T09:49:13;26.10;86.40
3866;DHT22;1948;53.250;10.412;2023-02-19T09:51:57;26.10;85.80
3866;DHT22;1948;53.250;10.412;2023-02-19T09:54:38;26.50;84.40
3866;DHT22;1948;53.250;10.412;2023-02-19T09:57:15;26.60;81.40
3866;DHT22;1948;53.250;10.412;2023-02-19T09:59:49;26.60;78.50
3866;DHT22;1948;53.250;10.412;2023-02-19T10:02:23;26.00;78.90
3866;DHT22;1948;53.250;10.412;2023-02-19T10:04:51;26.10;79.00
3866;DHT22;1948;53.250;10.412;2023-02-19T10:07:22;26.10;77.70
3866;DHT22;1948;53.250;10.412;2023-02-19T10:12:47;25.50;77.70
3866;DHT22;1948;53.250;10.412;2023-02-19T10:15:25;23.90;77.50
3866;DHT22;1948;53.250;10.412;2023-02-19T10:18:25;21.90;79.90
3866;DHT22;1948;53.250;10.412;2023-02-19T10:20:56;20.60;82.20
3866;DHT22;1948;53.250;10.412;2023-02-19T10:23:29;20.40;84.40
3866;DHT22;1948;53.250;10.412;2023-02-19T10:25:59;20.80;86.80
3866;DHT22;1948;53.250;10.412;2023-02-19T10:28:33;22.20;85.20
3866;DHT22;1948;53.250;10.412;2023-02-19T10:31:04;22.30;83.30
3866;DHT22;1948;53.250;10.412;2023-02-19T10:33:51;22.80;82.40
3866;DHT22;1948;53.250;10.412;2023-02-19T10:39:13;21.90;81.60
3866;DHT22;1948;53.250;10.412;2023-02-19T10:41:56;22.40;82.90
3866;DHT22;1948;53.250;10.412;2023-02-19T10:44:29;23.50;79.20
3866;DHT22;1948;53.250;10.412;2023-02-19T10:47:07;23.20;78.80
3866;DHT22;1948;53.250;10.412;2023-02-19T10:49:41;22.50;78.00
3866;DHT22;1948;53.250;10.412;2023-02-19T10:54:55;24.30;80.40
3866;DHT22;1948;53.250;10.412;2023-02-19T10:57:27;24.10;74.30
3866;DHT22;1948;53.250;10.412;2023-02-19T11:00:05;22.90;74.40
3866;DHT22;1948;53.250;10.412;2023-02-19T11:03:12;21.10;76.50
3866;DHT22;1948;53.250;10.412;2023-02-19T11:05:59;21.30;77.20
3866;DHT22;1948;53.250;10.412;2023-02-19T11:08:28;21.40;78.20
3866;DHT22;1948;53.250;10.412;2023-02-19T11:10:56;21.20;78.00
3866;DHT22;1948;53.250;10.412;2023-02-19T11:13:33;20.30;77.40
3866;DHT22;1948;53.250;10.412;2023-02-19T11:16:08;19.10;78.20
3866;DHT22;1948;53.250;10.412;2023-02-19T11:18:36;19.80;79.10
3866;DHT22;1948;53.250;10.412;2023-02-19T11:21:06;20.50;79.90
3866;DHT22;1948;53.250;10.412;2023-02-19T11:23:37;22.00;78.80
3866;DHT22;1948;53.250;10.412;2023-02-19T11:26:24;23.80;74.30
3866;DHT22;1948;53.250;10.412;2023-02-19T11:28:59;24.70;70.60
3866;DHT22;1948;53.250;10.412;2023-02-19T11:31:33;24.40;70.70
3866;DHT22;1948;53.250;10.412;2023-02-19T11:37:14;22.00;68.90
3866;DHT22;1948;53.250;10.412;2023-02-19T11:39:49;20.10;71.00
3866;DHT22;1948;53.250;10.412;2023-02-19T11:42:38;21.50;73.20
3866;DHT22;1948;53.250;10.412;2023-02-19T11:53:27;27.30;63.50
3866;DHT22;1948;53.250;10.412;2023-02-19T11:56:15;27.70;62.30
3866;DHT22;1948;53.250;10.412;2023-02-19T12:01:23;28.10;59.00
3866;DHT22;1948;53.250;10.412;2023-02-19T12:07:09;28.50;57.00
3866;DHT22;1948;53.250;10.412;2023-02-19T12:38:21;25.90;53.50
3866;DHT22;1948;53.250;10.412;2023-02-19T12:44:15;25.20;53.90
3866;DHT22;1948;53.250;10.412;2023-02-19T12:46:48;25.00;55.00
3866;DHT22;1948;53.250;10.412;2023-02-19T12:49:36;25.00;55.20
3866;DHT22;1948;53.250;10.412;2023-02-19T12:52:22;24.90;54.80
3866;DHT22;1948;53.250;10.412;2023-02-19T12:54:58;24.60;55.30
3866;DHT22;1948;53.250;10.412;2023-02-19T12:57:32;24.40;55.50
3866;DHT22;1948;53.250;10.412;2023-02-19T13:00:08;24.20;55.80
3866;DHT22;1948;53.250;10.412;2023-02-19T13:13:56;26.30;54.80
3866;DHT22;1948;53.250;10.412;2023-02-19T13:16:27;25.80;54.40
3866;DHT22;1948;53.250;10.412;2023-02-19T13:19:01;25.70;55.10
3866;DHT22;1948;53.250;10.412;2023-02-19T13:21:31;25.80;54.90
3866;DHT22;1948;53.250;10.412;2023-02-19T13:24:32;25.80;54.30
3866;DHT22;1948;53.250;10.412;2023-02-19T13:35:59;24.70;55.50
3866;DHT22;1948;53.250;10.412;2023-02-19T13:38:43;25.10;54.70
3866;DHT22;1948;53.250;10.412;2023-02-19T13:41:28;25.30;54.50
3866;DHT22;1948;53.250;10.412;2023-02-19T13:44:06;25.20;53.20
3866;DHT22;1948;53.250;10.412;2023-02-19T13:46:47;24.30;53.90
3866;DHT22;1948;53.250;10.412;2023-02-19T13:51:59;23.10;54.40
3866;DHT22;1948;53.250;10.412;2023-02-19T13:54:34;22.90;54.70
3866;DHT22;1948;53.250;10.412;2023-02-19T13:59:50;22.90;55.20
3866;DHT22;1948;53.250;10.412;2023-02-19T14:02:28;23.10;55.80
3866;DHT22;1948;53.250;10.412;2023-02-19T14:05:09;23.00;55.20
3866;DHT22;1948;53.250;10.412;2023-02-19T14:07:54;22.90;55.20
3866;DHT22;1948;53.250;10.412;2023-02-19T14:10:54;22.80;55.60
3866;DHT22;1948;53.250;10.412;2023-02-19T14:16:57;21.50;55.60
3866;DHT22;1948;53.250;10.412;2023-02-19T14:30:56;19.20;59.60
3866;DHT22;1948;53.250;10.412;2023-02-19T14:33:33;19.20;60.10
3866;DHT22;1948;53.250;10.412;2023-02-19T14:39:31;20.80;60.20
3866;DHT22;1948;53.250;10.412;2023-02-19T14:42:24;21.30;59.10
3866;DHT22;1948;53.250;10.412;2023-02-19T14:45:02;21.50;58.60
3866;DHT22;1948;53.250;10.412;2023-02-19T14:47:32;21.80;58.50
3866;DHT22;1948;53.250;10.412;2023-02-19T14:50:16;21.80;58.10
3866;DHT22;1948;53.250;10.412;2023-02-19T14:52:56;21.60;57.10
3866;DHT22;1948;53.250;10.412;2023-02-19T14:55:41;20.60;57.40
3866;DHT22;1948;53.250;10.412;2023-02-19T14:58:21;20.70;58.10
3866;DHT22;1948;53.250;10.412;2023-02-19T15:00:58;20.80;58.10
3866;DHT22;1948;53.250;10.412;2023-02-19T15:03:34;20.90;58.40
3866;DHT22;1948;53.250;10.412;2023-02-19T15:06:06;20.90;58.00
3866;DHT22;1948;53.250;10.412;2023-02-19T15:08:42;20.60;58.30
3866;DHT22;1948;53.250;10.412;2023-02-19T15:11:22;20.50;59.20
3866;DHT22;1948;53.250;10.412;2023-02-19T15:14:01;20.30;58.90
3866;DHT22;1948;53.250;10.412;2023-02-19T15:16:34;20.20;59.50
3866;DHT22;1948;53.250;10.412;2023-02-19T15:19:06;19.90;59.40
3866;DHT22;1948;53.250;10.412;2023-02-19T15:21:38;19.40;59.70
3866;DHT22;1948;53.250;10.412;2023-02-19T15:24:13;19.00;60.30
3866;DHT22;1948;53.250;10.412;2023-02-19T15:26:45;18.80;61.00
3866;DHT22;1948;53.250;10.412;2023-02-19T15:29:15;18.60;61.90
3866;DHT22;1948;53.250;10.412;2023-02-19T15:31:50;18.40;62.40
3866;DHT22;1948;53.250;10.412;2023-02-19T15:34:23;18.10;63.30
3866;DHT22;1948;53.250;10.412;2023-02-19T15:37:01;17.60;63.50
3866;DHT22;1948;53.250;10.412;2023-02-19T15:39:36;17.00;64.90
3866;DHT22;1948;53.250;10.412;2023-02-19T15:42:14;16.70;66.40
3866;DHT22;1948;53.250;10.412;2023-02-19T15:44:47;16.40;67.60
3866;DHT22;1948;53.250;10.412;2023-02-19T15:50:04;15.40;71.50
3866;DHT22;1948;53.250;10.412;2023-02-19T15:58:14;13.50;81.30
3866;DHT22;1948;53.250;10.412;2023-02-19T16:00:55;12.90;86.70
3866;DHT22;1948;53.250;10.412;2023-02-19T16:03:25;12.50;90.60
3866;DHT22;1948;53.250;10.412;2023-02-19T16:06:14;12.10;93.10
3866;DHT22;1948;53.250;10.412;2023-02-19T16:09:03;11.80;95.60
3866;DHT22;1948;53.250;10.412;2023-02-19T16:11:39;11.60;98.50
3866;DHT22;1948;53.250;10.412;2023-02-19T16:19:49;10.80;99.90
3866;DHT22;1948;53.250;10.412;2023-02-19T16:22:21;10.50;99.90
3866;DHT22;1948;53.250;10.412;2023-02-19T16:25:03;10.40;99.90
3866;DHT22;1948;53.250;10.412;2023-02-19T16:27:37;10.30;99.90
3866;DHT22;1948;53.250;10.412;2023-02-19T16:30:07;10.10;99.90
3866;DHT22;1948;53.250;10.412;2023-02-19T16:32:40;9.90;99.90
3866;DHT22;1948;53.250;10.412;2023-02-19T16:35:37;9.80;99.90
3866;DHT22;1948;53.250;10.412;2023-02-19T16:38:15;9.60;99.90
3866;DHT22;1948;53.250;10.412;2023-02-19T16:43:37;9.40;99.90
3866;DHT22;1948;53.250;10.412;2023-02-19T16:46:13;9.30;99.90
3866;DHT22;1948;53.250;10.412;2023-02-19T16:48:40;9.20;99.90
3866;DHT22;1948;53.250;10.412;2023-02-19T16:51:13;9.20;99.90
3866;DHT22;1948;53.250;10.412;2023-02-19T16:53:43;9.10;99.90
3866;DHT22;1948;53.250;10.412;2023-02-19T16:56:15;9.10;99.90
3866;DHT22;1948;53.250;10.412;2023-02-19T16:58:44;9.00;99.90
3866;DHT22;1948;53.250;10.412;2023-02-19T17:01:13;8.90;99.90
3866;DHT22;1948;53.250;10.412;2023-02-19T17:03:41;8.90;99.90
3866;DHT22;1948;53.250;10.412;2023-02-19T17:06:08;8.80;99.90
3866;DHT22;1948;53.250;10.412;2023-02-19T17:08:37;8.70;99.90
3866;DHT22;1948;53.250;10.412;2023-02-19T17:11:10;8.70;99.90
3866;DHT22;1948;53.250;10.412;2023-02-19T17:13:42;8.60;99.90
3866;DHT22;1948;53.250;10.412;2023-02-19T17:16:20;8.50;99.90
3866;DHT22;1948;53.250;10.412;2023-02-19T17:18:53;8.40;99.90
3866;DHT22;1948;53.250;10.412;2023-02-19T17:21:26;8.30;99.90
3866;DHT22;1948;53.250;10.412;2023-02-19T17:23:53;8.30;99.90
3866;DHT22;1948;53.250;10.412;2023-02-19T17:26:28;8.20;99.90
3866;DHT22;1948;53.250;10.412;2023-02-19T17:29:01;8.20;99.90
3866;DHT22;1948;53.250;10.412;2023-02-19T17:31:30;8.10;99.90
3866;DHT22;1948;53.250;10.412;2023-02-19T17:33:57;8.00;99.90
3866;DHT22;1948;53.250;10.412;2023-02-19T17:36:34;8.00;99.90
3866;DHT22;1948;53.250;10.412;2023-02-19T17:39:02;7.90;99.90
3866;DHT22;1948;53.250;10.412;2023-02-19T17:41:30;7.90;99.90
3866;DHT22;1948;53.250;10.412;2023-02-19T17:43:57;7.90;99.90
3866;DHT22;1948;53.250;10.412;2023-02-19T17:46:25;7.90;99.90
3866;DHT22;1948;53.250;10.412;2023-02-19T17:48:53;7.90;99.90
3866;DHT22;1948;53.250;10.412;2023-02-19T17:51:23;7.80;99.90
3866;DHT22;1948;53.250;10.412;2023-02-19T17:53:52;7.80;99.90
3866;DHT22;1948;53.250;10.412;2023-02-19T17:56:21;7.70;99.90
3866;DHT22;1948;53.250;10.412;2023-02-19T17:58:55;7.70;99.90
3866;DHT22;1948;53.250;10.412;2023-02-19T18:01:25;7.70;99.90
3866;DHT22;1948;53.250;10.412;2023-02-19T18:03:54;7.60;99.90
3866;DHT22;1948;53.250;10.412;2023-02-19T18:06:22;7.60;99.90
3866;DHT22;1948;53.250;10.412;2023-02-19T18:08:51;7.60;99.90
3866;DHT22;1948;53.250;10.412;2023-02-19T18:11:22;7.60;99.90
3866;DHT22;1948;53.250;10.412;2023-02-19T18:13:50;7.70;99.90
3866;DHT22;1948;53.250;10.412;2023-02-19T18:16:18;7.70;99.90
3866;DHT22;1948;53.250;10.412;2023-02-19T18:18:45;7.70;99.90
3866;DHT22;1948;53.250;10.412;2023-02-19T18:21:14;7.70;99.90
3866;DHT22;1948;53.250;10.412;2023-02-19T18:23:41;7.80;99.90
3866;DHT22;1948;53.250;10.412;2023-02-19T18:26:09;7.80;99.90
3866;DHT22;1948;53.250;10.412;2023-02-19T18:28:37;7.90;99.90
3866;DHT22;1948;53.250;10.412;2023-02-19T18:31:10;7.80;99.90
3866;DHT22;1948;53.250;10.412;2023-02-19T18:33:40;7.80;99.90
3866;DHT22;1948;53.250;10.412;2023-02-19T18:36:11;7.80;99.90
3866;DHT22;1948;53.250;10.412;2023-02-19T18:38:38;7.80;99.90
3866;DHT22;1948;53.250;10.412;2023-02-19T18:41:10;7.80;99.90
3866;DHT22;1948;53.250;10.412;2023-02-19T18:43:40;7.70;99.90
3866;DHT22;1948;53.250;10.412;2023-02-19T18:46:08;7.80;99.90
3866;DHT22;1948;53.250;10.412;2023-02-19T18:48:36;7.80;99.90
3866;DHT22;1948;53.250;10.412;2023-02-19T18:51:04;7.80;99.90
3866;DHT22;1948;53.250;10.412;2023-02-19T18:53:36;7.70;99.90
3866;DHT22;1948;53.250;10.412;2023-02-19T18:56:05;7.70;99.90
3866;DHT22;1948;53.250;10.412;2023-02-19T18:58:34;7.70;99.90
3866;DHT22;1948;53.250;10.412;2023-02-19T19:01:01;7.70;99.90
3866;DHT22;1948;53.250;10.412;2023-02-19T19:03:29;7.70;99.90